Time;durP1;ratioP1;P1;durP2;ratioP2;P2;SDS_P1;SDS_P2;PMS_P1;PMS_P2;Temp;Humidity;BMP_temperature;BMP_pressure;BME280_temperature;BME280_humidity;BME280_pressure;Samples;Min_cycle;Max_cycle;Signal;HPM_P1;HPM_P2
2021/04/14 00:02:06;;;;;;;0.10;0.10;;;3.60;99.90;;;;;;4989893;28;20278;-72
2021/04/14 00:04:33;;;;;;;0.10;0.10;;;3.60;99.90;;;;;;4989970;28;20164;-72
2021/04/14 00:07:00;;;;;;;0.10;0.10;;;3.60;99.90;;;;;;4988581;28;20192;-72
2021/04/14 00:09:29;;;;;;;0.30;0.30;;;3.60;99.90;;;;;;4989614;28;20226;-72
2021/04/14 00:11:59;;;;;;;0.50;0.50;;;3.50;99.90;;;;;;4989626;28;20198;-72
2021/04/14 00:14:27;;;;;;;0.43;0.43;;;3.50;99.90;;;;;;4988179;28;20173;-73
2021/04/14 00:16:53;;;;;;;0.30;0.30;;;3.40;99.90;;;;;;4989602;28;20190;-72
2021/04/14 00:19:19;;;;;;;0.10;0.10;;;3.40;99.90;;;;;;4987940;28;20257;-72
2021/04/14 00:21:45;;;;;;;0.13;0.13;;;3.40;99.90;;;;;;4989179;28;20207;-72
2021/04/14 00:24:12;;;;;;;0.10;0.10;;;3.30;99.90;;;;;;4989335;28;20480;-72
2021/04/14 00:26:39;;;;;;;0.20;0.20;;;3.10;99.90;;;;;;4989396;28;20633;-72
2021/04/14 00:29:06;;;;;;;0.10;0.10;;;3.20;99.90;;;;;;4989102;28;20275;-73
2021/04/14 00:31:38;;;;;;;0.65;0.65;;;3.10;99.90;;;;;;4989113;28;20191;-72
2021/04/14 00:34:07;;;;;;;0.32;0.32;;;3.00;99.90;;;;;;4988984;28;20184;-72
2021/04/14 00:36:35;;;;;;;0.10;0.10;;;3.10;99.90;;;;;;4989165;28;20155;-72
2021/04/14 00:39:05;;;;;;;0.10;0.10;;;3.00;99.90;;;;;;4989119;28;20238;-72
2021/04/14 00:41:30;;;;;;;0.25;0.25;;;3.00;99.90;;;;;;4988861;28;20209;-72
2021/04/14 00:43:57;;;;;;;0.10;0.10;;;3.00;99.90;;;;;;4987719;28;20171;-72
2021/04/14 00:46:24;;;;;;;0.17;0.17;;;3.00;99.90;;;;;;4988902;28;20171;-72
2021/04/14 00:48:50;;;;;;;0.20;0.20;;;3.00;99.90;;;;;;4987336;28;20199;-73
2021/04/14 00:51:18;;;;;;;0.20;0.20;;;3.00;99.90;;;;;;4988674;28;20513;-72
2021/04/14 00:53:44;;;;;;;0.10;0.10;;;3.10;99.90;;;;;;4988640;28;20182;-72
2021/04/14 00:56:10;;;;;;;0.20;0.20;;;3.20;99.90;;;;;;4988910;28;20155;-73
2021/04/14 00:58:36;;;;;;;0.20;0.20;;;3.20;99.90;;;;;;4988314;28;20166;-72
2021/04/14 01:01:03;;;;;;;0.10;0.10;;;3.30;99.90;;;;;;4989908;28;20227;-72
2021/04/14 01:03:33;;;;;;;0.10;0.10;;;3.50;99.90;;;;;;4990931;28;20174;-72
2021/04/14 01:06:02;;;;;;;0.10;0.10;;;3.60;99.90;;;;;;4990989;28;20585;-72
2021/04/14 01:08:28;;;;;;;0.17;0.17;;;3.60;99.90;;;;;;4991920;28;20302;-73
2021/04/14 01:10:54;;;;;;;0.10;0.10;;;3.60;99.90;;;;;;4992146;28;20160;-72
2021/04/14 01:13:21;;;;;;;0.13;0.13;;;3.70;99.90;;;;;;4992111;28;20198;-73
2021/04/14 01:15:49;;;;;;;0.10;0.10;;;3.70;99.90;;;;;;4990584;28;20159;-72
2021/04/14 01:18:23;;;;;;;0.25;0.25;;;3.70;99.90;;;;;;4992393;28;20601;-73
2021/04/14 01:20:51;;;;;;;0.10;0.10;;;3.60;99.90;;;;;;4991970;28;20229;-72
2021/04/14 01:23:18;;;;;;;0.10;0.10;;;3.60;99.90;;;;;;4992231;28;20199;-72
2021/04/14 01:25:44;;;;;;;0.10;0.10;;;3.60;99.90;;;;;;4992086;28;20163;-73
2021/04/14 01:28:14;;;;;;;0.10;0.10;;;3.60;99.90;;;;;;4983939;28;20215;-72
2021/04/14 01:30:41;;;;;;;0.10;0.10;;;3.60;99.90;;;;;;4971267;28;20191;-72
2021/04/14 01:33:09;;;;;;;0.10;0.10;;;3.60;99.90;;;;;;4982267;28;20545;-72
2021/04/14 01:35:35;;;;;;;0.20;0.20;;;3.60;99.90;;;;;;4972132;28;20248;-73
2021/04/14 01:38:01;;;;;;;0.10;0.10;;;3.60;99.90;;;;;;4972240;28;20171;-72
2021/04/14 01:40:27;;;;;;;0.13;0.13;;;3.60;99.90;;;;;;4972364;28;20173;-72
2021/04/14 01:42:55;;;;;;;0.20;0.20;;;3.70;99.90;;;;;;4972130;28;20215;-72
2021/04/14 01:45:34;;;;;;;0.20;0.20;;;3.70;99.90;;;;;;4972551;28;20224;-72
2021/04/14 01:48:00;;;;;;;0.20;0.20;;;3.70;99.90;;;;;;4972209;28;20335;-72
2021/04/14 01:50:26;;;;;;;0.10;0.10;;;3.60;99.90;;;;;;4972398;28;20156;-72
2021/04/14 01:52:53;;;;;;;0.55;0.55;;;3.70;99.90;;;;;;4972171;28;20196;-72
2021/04/14 01:55:20;;;;;;;0.20;0.20;;;3.60;99.90;;;;;;4972376;28;20635;-72
2021/04/14 01:57:47;;;;;;;0.52;0.52;;;3.50;99.90;;;;;;4972344;28;20220;-72
2021/04/14 02:00:39;;;;;;;0.20;0.20;;;3.50;99.90;;;;;;4972168;28;20192;-72
2021/04/14 02:03:05;;;;;;;0.10;0.10;;;3.50;99.90;;;;;;4971079;28;20319;-72
2021/04/14 02:05:32;;;;;;;0.20;0.20;;;3.50;99.90;;;;;;4971985;28;20252;-72
2021/04/14 02:07:59;;;;;;;0.10;0.10;;;3.50;99.90;;;;;;4972927;28;20262;-72
2021/04/14 02:10:29;;;;;;;0.15;0.15;;;3.40;99.90;;;;;;4972621;28;20179;-72
2021/04/14 02:12:56;;;;;;;0.10;0.10;;;3.50;99.90;;;;;;4969668;28;20207;-72
2021/04/14 02:15:26;;;;;;;0.10;0.10;;;3.50;99.90;;;;;;4971360;28;20180;-71
2021/04/14 02:17:52;;;;;;;0.13;0.13;;;3.50;99.90;;;;;;4971540;28;20654;-71
2021/04/14 02:20:19;;;;;;;0.20;0.20;;;3.50;99.90;;;;;;4970023;29;20235;-72
2021/04/14 02:22:45;;;;;;;0.10;0.10;;;3.50;99.90;;;;;;4970003;28;20210;-72
2021/04/14 02:25:12;;;;;;;0.10;0.10;;;3.60;99.90;;;;;;4971585;29;20160;-72
2021/04/14 02:27:39;;;;;;;0.30;0.30;;;3.60;99.90;;;;;;4975086;28;20174;-72
2021/04/14 02:30:12;;;;;;;0.10;0.10;;;3.50;99.90;;;;;;4989414;28;20172;-72
2021/04/14 02:32:38;;;;;;;0.10;0.10;;;3.50;99.90;;;;;;4990255;28;20191;-74
2021/04/14 02:35:04;;;;;;;0.10;0.10;;;3.50;99.90;;;;;;4990312;28;20567;-74
2021/04/14 02:37:30;;;;;;;0.10;0.10;;;3.50;99.90;;;;;;4990807;28;20182;-72
2021/04/14 02:39:55;;;;;;;0.20;0.20;;;3.50;99.90;;;;;;4990856;28;20168;-71
2021/04/14 02:42:21;;;;;;;0.28;0.28;;;3.50;99.90;;;;;;4990297;28;20202;-72
2021/04/14 02:44:47;;;;;;;0.10;0.10;;;3.60;99.90;;;;;;4990589;28;20164;-73
2021/04/14 02:47:13;;;;;;;0.10;0.10;;;3.50;99.90;;;;;;4989865;28;20159;-72
2021/04/14 02:49:39;;;;;;;0.15;0.15;;;3.40;99.90;;;;;;4990723;28;20250;-73
2021/04/14 02:52:05;;;;;;;0.25;0.25;;;3.40;99.90;;;;;;4990577;28;20210;-72
2021/04/14 02:54:31;;;;;;;0.25;0.25;;;3.40;99.90;;;;;;4990464;28;20175;-72
2021/04/14 02:56:57;;;;;;;0.50;0.50;;;3.40;99.90;;;;;;4990374;28;20167;-72
2021/04/14 02:59:23;;;;;;;0.10;0.10;;;3.40;99.90;;;;;;4990537;28;20172;-72
2021/04/14 03:01:49;;;;;;;2.38;0.65;;;3.30;99.90;;;;;;4990479;28;20271;-72
2021/04/14 03:04:16;;;;;;;0.10;0.10;;;3.30;99.90;;;;;;4990490;28;20236;-72
2021/04/14 03:06:43;;;;;;;0.70;0.70;;;3.30;99.90;;;;;;4990893;28;20170;-73
2021/04/14 03:09:08;;;;;;;0.10;0.10;;;3.30;99.90;;;;;;4990109;28;20183;-72
2021/04/14 03:11:34;;;;;;;0.10;0.10;;;3.20;99.90;;;;;;4989904;28;20246;-71
2021/04/14 03:14:00;;;;;;;0.10;0.10;;;3.20;99.90;;;;;;4990194;28;20159;-73
2021/04/14 03:16:26;;;;;;;0.10;0.10;;;3.00;99.90;;;;;;4989087;28;20198;-73
2021/04/14 03:18:52;;;;;;;0.10;0.10;;;3.00;99.90;;;;;;4989758;28;20207;-72
2021/04/14 03:21:19;;;;;;;0.40;0.40;;;3.00;99.90;;;;;;4989792;28;20236;-72
2021/04/14 03:23:45;;;;;;;0.10;0.10;;;3.00;99.90;;;;;;4989902;28;20163;-72
2021/04/14 03:26:11;;;;;;;0.10;0.10;;;3.00;99.90;;;;;;4989680;28;20179;-71
2021/04/14 03:28:37;;;;;;;0.10;0.10;;;3.00;99.90;;;;;;4989450;28;20195;-72
2021/04/14 03:31:03;;;;;;;0.10;0.10;;;3.10;99.90;;;;;;4989903;28;20227;-72
2021/04/14 03:33:29;;;;;;;0.20;0.20;;;3.10;99.90;;;;;;4989266;28;20195;-71
2021/04/14 03:35:55;;;;;;;0.10;0.10;;;3.00;99.90;;;;;;4989752;28;20164;-72
2021/04/14 03:38:22;;;;;;;0.10;0.10;;;3.10;99.90;;;;;;4989491;28;20179;-71
2021/04/14 03:40:48;;;;;;;0.10;0.10;;;3.00;99.90;;;;;;4989178;28;20686;-70
2021/04/14 03:43:14;;;;;;;0.10;0.10;;;3.10;99.90;;;;;;4989299;28;20539;-73
2021/04/14 03:45:45;;;;;;;0.28;0.28;;;3.00;99.90;;;;;;4989569;28;20263;-73
2021/04/14 03:48:11;;;;;;;0.10;0.10;;;3.00;99.90;;;;;;4989097;28;20187;-72
2021/04/14 03:50:39;;;;;;;0.20;0.20;;;3.00;99.90;;;;;;4988085;28;20174;-73
2021/04/14 03:53:35;;;;;;;0.15;0.15;;;3.00;99.90;;;;;;4987926;28;20226;-73
2021/04/14 03:56:03;;;;;;;1.58;1.48;;;2.90;99.90;;;;;;4988117;28;20183;-72
2021/04/14 03:58:30;;;;;;;0.63;0.63;;;2.90;99.90;;;;;;4988643;28;20227;-73
2021/04/14 04:00:59;;;;;;;2.47;2.20;;;2.80;99.90;;;;;;4988869;28;20155;-72
2021/04/14 04:03:26;;;;;;;0.38;0.38;;;2.80;99.90;;;;;;4988981;28;20199;-72
2021/04/14 04:05:53;;;;;;;0.10;0.10;;;2.90;99.90;;;;;;4987370;28;20171;-72
2021/04/14 04:08:19;;;;;;;0.17;0.17;;;2.90;99.90;;;;;;4988412;28;20199;-74
2021/04/14 04:10:45;;;;;;;0.20;0.20;;;2.90;99.90;;;;;;4988077;28;20466;-71
2021/04/14 04:13:13;;;;;;;0.88;0.88;;;2.90;99.90;;;;;;4988087;28;20205;-71
2021/04/14 04:15:39;;;;;;;0.17;0.17;;;3.00;99.90;;;;;;4988769;28;20183;-74
2021/04/14 04:18:07;;;;;;;0.28;0.28;;;3.10;99.90;;;;;;4988623;28;20171;-73
2021/04/14 04:20:33;;;;;;;0.10;0.10;;;3.20;99.90;;;;;;4985938;28;20649;-72
2021/04/14 04:23:00;;;;;;;0.10;0.10;;;3.30;99.90;;;;;;4988036;28;20261;-72
2021/04/14 04:25:28;;;;;;;0.10;0.10;;;3.60;99.90;;;;;;4989141;28;20161;-71
2021/04/14 04:27:55;;;;;;;0.10;0.10;;;3.80;99.90;;;;;;4988616;28;20202;-72
2021/04/14 04:30:21;;;;;;;0.15;0.15;;;3.90;99.90;;;;;;4987751;28;20175;-71
2021/04/14 04:32:47;;;;;;;0.10;0.10;;;3.90;99.90;;;;;;4987147;28;20199;-73
2021/04/14 04:35:14;;;;;;;0.20;0.20;;;3.90;99.90;;;;;;4988925;28;20218;-71
2021/04/14 04:37:40;;;;;;;0.25;0.25;;;4.00;99.90;;;;;;4988652;28;20240;-75
2021/04/14 04:40:07;;;;;;;0.20;0.20;;;4.00;99.90;;;;;;4988751;28;20160;-74
2021/04/14 04:42:33;;;;;;;0.10;0.10;;;4.00;99.90;;;;;;4988008;28;20202;-72
2021/04/14 04:45:00;;;;;;;0.20;0.20;;;4.00;99.90;;;;;;4987726;28;20183;-72
2021/04/14 04:47:26;;;;;;;0.20;0.20;;;4.00;99.90;;;;;;4987266;28;20223;-72
2021/04/14 04:49:52;;;;;;;0.30;0.30;;;4.10;99.90;;;;;;4987448;28;20206;-73
2021/04/14 04:52:19;;;;;;;0.20;0.20;;;4.10;99.90;;;;;;4988081;28;20682;-72
2021/04/14 04:54:45;;;;;;;0.20;0.20;;;4.10;99.90;;;;;;4985684;28;20176;-71
2021/04/14 04:57:11;;;;;;;0.17;0.17;;;4.20;99.90;;;;;;4987264;28;20163;-71
2021/04/14 04:59:37;;;;;;;0.20;0.20;;;4.10;99.90;;;;;;4987912;28;20183;-73
2021/04/14 05:02:03;;;;;;;4.53;1.40;;;4.20;99.90;;;;;;4987174;28;20263;-72
2021/04/14 05:04:29;;;;;;;0.20;0.20;;;4.20;99.90;;;;;;4987265;28;20171;-72
2021/04/14 05:06:55;;;;;;;0.10;0.10;;;4.30;99.90;;;;;;4986660;28;20306;-71
2021/04/14 05:09:22;;;;;;;0.35;0.35;;;4.30;99.90;;;;;;4985514;28;20234;-72
2021/04/14 05:11:49;;;;;;;0.40;0.40;;;4.40;99.90;;;;;;4986298;28;20265;-72
2021/04/14 05:14:15;;;;;;;0.10;0.10;;;4.50;99.90;;;;;;4988382;28;20162;-73
2021/04/14 05:16:41;;;;;;;0.10;0.10;;;4.60;99.90;;;;;;4986829;28;20182;-73
2021/04/14 05:19:08;;;;;;;0.10;0.10;;;4.70;99.90;;;;;;4988072;28;20234;-73
2021/04/14 05:21:36;;;;;;;0.15;0.15;;;4.90;99.90;;;;;;4988416;28;20199;-72
2021/04/14 05:24:03;;;;;;;0.10;0.10;;;4.90;99.90;;;;;;4988252;28;20197;-72
2021/04/14 05:26:28;;;;;;;0.20;0.20;;;5.00;99.90;;;;;;4988108;28;20518;-72
2021/04/14 05:28:55;;;;;;;0.10;0.10;;;5.20;99.90;;;;;;4987904;28;20218;-71
2021/04/14 05:31:21;;;;;;;0.10;0.10;;;5.10;99.90;;;;;;4988034;28;20164;-71
2021/04/14 05:33:46;;;;;;;0.10;0.10;;;5.00;99.90;;;;;;4983478;28;20180;-72
2021/04/14 05:36:13;;;;;;;0.20;0.20;;;5.00;99.90;;;;;;4968623;28;20164;-72
2021/04/14 05:38:38;;;;;;;0.20;0.20;;;5.00;99.90;;;;;;4968582;28;20164;-71
2021/04/14 05:41:05;;;;;;;0.10;0.10;;;5.20;99.90;;;;;;4968502;28;20171;-72
2021/04/14 05:43:38;;;;;;;0.10;0.10;;;5.30;99.90;;;;;;4981895;28;20203;-72
2021/04/14 05:46:07;;;;;;;0.20;0.20;;;5.30;99.90;;;;;;4987706;28;20251;-72
2021/04/14 05:48:34;;;;;;;0.20;0.20;;;5.30;99.90;;;;;;4990468;28;20210;-72
2021/04/14 05:51:04;;;;;;;0.10;0.10;;;5.30;99.90;;;;;;4991736;28;20159;-72
2021/04/14 05:53:31;;;;;;;0.10;0.10;;;5.30;99.90;;;;;;4991483;28;20598;-71
2021/04/14 05:55:57;;;;;;;0.20;0.20;;;5.30;99.90;;;;;;4991359;28;20191;-72
2021/04/14 05:58:23;;;;;;;0.17;0.17;;;5.30;99.90;;;;;;4991092;28;20199;-71
2021/04/14 06:00:49;;;;;;;0.10;0.10;;;5.20;99.90;;;;;;4991541;28;20160;-72
2021/04/14 06:03:15;;;;;;;0.50;0.50;;;5.30;99.90;;;;;;4990106;28;20195;-72
2021/04/14 06:05:40;;;;;;;0.20;0.20;;;5.20;99.90;;;;;;4991440;28;20167;-72
2021/04/14 06:08:06;;;;;;;0.30;0.30;;;5.30;99.90;;;;;;4991418;28;20234;-74
2021/04/14 06:10:33;;;;;;;0.10;0.10;;;5.50;99.90;;;;;;4991292;28;20183;-72
2021/04/14 06:12:58;;;;;;;0.20;0.20;;;5.60;99.90;;;;;;4991164;28;20222;-72
2021/04/14 06:15:30;;;;;;;0.30;0.30;;;5.70;99.90;;;;;;4989931;28;20179;-72
2021/04/14 06:17:56;;;;;;;0.10;0.10;;;5.80;99.90;;;;;;4991216;28;20172;-72
2021/04/14 06:20:24;;;;;;;0.20;0.20;;;6.20;99.90;;;;;;4990610;28;20233;-72
2021/04/14 06:22:51;;;;;;;0.20;0.20;;;6.30;99.90;;;;;;4988951;28;20203;-71
2021/04/14 06:25:19;;;;;;;0.10;0.10;;;6.80;99.90;;;;;;4988706;28;20179;-71
2021/04/14 06:30:41;;;;;;;0.10;0.10;;;7.50;99.90;;;;;;4949760;29;20275;-72
2021/04/14 06:33:09;;;;;;;0.20;0.20;;;6.90;99.90;;;;;;4949521;29;20212;-72
2021/04/14 06:35:35;;;;;;;0.10;0.10;;;6.80;99.90;;;;;;4950331;29;20252;-73
2021/04/14 06:38:04;;;;;;;0.10;0.10;;;7.00;99.90;;;;;;4950211;29;20330;-73
2021/04/14 06:43:44;;;;;;;0.20;0.20;;;7.20;99.90;;;;;;4949863;29;20208;-72
2021/04/14 06:46:20;;;;;;;0.10;0.10;;;7.30;99.90;;;;;;4949881;29;20184;-72
2021/04/14 06:48:57;;;;;;;0.25;0.25;;;7.10;99.90;;;;;;4933804;29;20265;-72
2021/04/14 06:51:41;;;;;;;0.10;0.10;;;7.20;99.90;;;;;;4949795;29;20200;-72
2021/04/14 06:54:52;;;;;;;0.10;0.10;;;7.10;99.90;;;;;;4949896;29;20679;-73
2021/04/14 06:57:47;;;;;;;0.10;0.10;;;7.00;99.90;;;;;;4947212;29;20216;-71
2021/04/14 07:00:39;;;;;;;0.10;0.10;;;7.50;99.90;;;;;;4946537;29;20259;-72
2021/04/14 07:03:25;;;;;;;0.93;0.63;;;7.30;99.90;;;;;;4949343;29;20327;-72
2021/04/14 07:05:58;;;;;;;0.10;0.10;;;7.20;99.90;;;;;;4949591;29;20176;-71
2021/04/14 07:08:35;;;;;;;0.10;0.10;;;7.40;99.90;;;;;;4970750;28;20570;-75
2021/04/14 07:11:03;;;;;;;0.50;0.50;;;7.50;99.90;;;;;;4970728;28;20238;-72
2021/04/14 07:13:34;;;;;;;0.10;0.10;;;8.00;99.90;;;;;;4970933;28;20554;-73
2021/04/14 07:16:29;;;;;;;0.20;0.20;;;8.30;99.90;;;;;;4971072;28;20191;-72
2021/04/14 07:19:10;;;;;;;0.68;0.50;;;8.50;99.90;;;;;;4970544;28;20212;-72
2021/04/14 07:21:42;;;;;;;0.10;0.10;;;8.40;99.90;;;;;;4970501;28;20207;-74
2021/04/14 07:24:24;;;;;;;0.17;0.17;;;8.50;99.90;;;;;;4970932;28;20156;-72
2021/04/14 07:26:59;;;;;;;0.10;0.10;;;9.00;99.90;;;;;;4969678;28;20164;-73
2021/04/14 07:29:36;;;;;;;0.10;0.10;;;9.40;99.90;;;;;;4987222;28;20289;-73
2021/04/14 07:32:19;;;;;;;0.10;0.10;;;9.20;99.90;;;;;;4989825;28;20202;-72
2021/04/14 07:35:09;;;;;;;1.35;1.25;;;9.30;99.90;;;;;;4989741;28;20179;-73
2021/04/14 07:38:05;;;;;;;0.10;0.10;;;10.40;99.90;;;;;;4989893;28;20158;-72
2021/04/14 07:41:01;;;;;;;0.52;0.43;;;10.40;99.90;;;;;;4989901;28;20190;-72
2021/04/14 07:43:53;;;;;;;0.40;0.40;;;9.60;99.90;;;;;;4987871;28;20210;-73
2021/04/14 07:46:25;;;;;;;0.10;0.10;;;9.10;99.90;;;;;;4988230;28;20190;-71
2021/04/14 07:48:57;;;;;;;0.10;0.10;;;9.90;99.90;;;;;;4989246;28;20201;-71
2021/04/14 07:51:24;;;;;;;0.10;0.10;;;9.80;99.90;;;;;;4987962;28;20194;-71
2021/04/14 07:54:14;;;;;;;0.15;0.15;;;9.80;99.90;;;;;;4989213;28;20175;-71
2021/04/14 07:56:48;;;;;;;0.20;0.20;;;10.30;99.90;;;;;;4987895;28;20662;-72
2021/04/14 07:59:24;;;;;;;0.20;0.20;;;10.00;99.90;;;;;;4989297;28;20162;-72
2021/04/14 08:01:57;;;;;;;0.10;0.10;;;10.10;99.90;;;;;;4989270;28;20214;-72
2021/04/14 08:04:45;;;;;;;0.10;0.10;;;10.30;99.90;;;;;;4989686;28;20621;-73
2021/04/14 08:07:17;;;;;;;0.20;0.20;;;11.20;99.90;;;;;;4989474;28;20167;-72
2021/04/14 08:10:17;;;;;;;0.10;0.10;;;10.40;99.90;;;;;;4988618;28;20251;-71
2021/04/14 08:12:55;;;;;;;0.65;0.65;;;10.90;99.90;;;;;;4986043;28;20215;-71
2021/04/14 08:15:39;;;;;;;0.10;0.10;;;10.00;99.90;;;;;;4988901;28;20151;-70
2021/04/14 08:18:17;;;;;;;0.50;0.50;;;9.50;99.90;;;;;;4987545;28;20202;-72
2021/04/14 08:20:46;;;;;;;0.20;0.20;;;9.90;99.90;;;;;;4989271;28;20242;-72
2021/04/14 08:23:18;;;;;;;0.10;0.10;;;9.60;99.90;;;;;;4988672;28;20197;-73
2021/04/14 08:25:53;;;;;;;0.10;0.10;;;9.00;99.90;;;;;;4987890;28;20625;-72
2021/04/14 08:28:41;;;;;;;0.10;0.10;;;9.60;99.90;;;;;;4979960;28;20263;-72
2021/04/14 08:31:17;;;;;;;0.10;0.10;;;9.60;99.90;;;;;;4968264;29;20555;-72
2021/04/14 08:33:43;;;;;;;0.10;0.10;;;8.80;99.90;;;;;;4973892;28;20186;-72
2021/04/14 08:36:25;;;;;;;0.20;0.20;;;8.60;99.90;;;;;;4987370;28;20575;-73
2021/04/14 08:38:51;;;;;;;0.17;0.17;;;9.30;99.90;;;;;;4988842;28;20168;-72
2021/04/14 08:41:36;;;;;;;0.10;0.10;;;9.50;99.90;;;;;;4988504;28;20188;-72
2021/04/14 08:44:12;;;;;;;0.20;0.20;;;9.80;99.90;;;;;;4988869;28;20164;-71
2021/04/14 08:46:40;;;;;;;0.57;0.32;;;9.50;99.90;;;;;;4988546;28;20174;-71
2021/04/14 08:49:23;;;;;;;0.68;0.68;;;9.30;99.90;;;;;;4988468;28;20195;-71
2021/04/14 08:51:51;;;;;;;0.10;0.10;;;9.00;99.90;;;;;;4988624;28;20205;-71
2021/04/14 08:54:25;;;;;;;0.17;0.17;;;9.20;99.90;;;;;;4988686;28;20213;-73
2021/04/14 08:56:52;;;;;;;0.17;0.17;;;9.50;99.90;;;;;;4988577;28;20159;-72
2021/04/14 08:59:18;;;;;;;0.17;0.17;;;9.20;99.90;;;;;;4988396;28;20171;-72
2021/04/14 09:01:44;;;;;;;0.22;0.20;;;8.80;99.90;;;;;;4986890;28;20230;-73
2021/04/14 09:04:12;;;;;;;1.52;0.88;;;8.70;99.90;;;;;;4987068;28;20183;-72
2021/04/14 09:06:40;;;;;;;0.15;0.15;;;8.40;99.90;;;;;;4988676;28;20233;-71
2021/04/14 09:09:12;;;;;;;0.65;0.65;;;8.10;99.90;;;;;;4988572;28;20187;-71
2021/04/14 09:11:38;;;;;;;0.25;0.25;;;8.00;99.90;;;;;;4988154;28;20215;-72
2021/04/14 09:14:21;;;;;;;0.10;0.10;;;8.10;99.90;;;;;;4988417;28;20152;-71
2021/04/14 09:16:51;;;;;;;0.10;0.10;;;8.40;99.90;;;;;;4988465;28;20156;-71
2021/04/14 09:19:30;;;;;;;0.10;0.10;;;8.70;99.90;;;;;;4988179;28;20759;-71
2021/04/14 09:22:02;;;;;;;0.10;0.10;;;9.30;99.90;;;;;;4989890;28;20234;-72
2021/04/14 09:24:54;;;;;;;0.10;0.10;;;9.10;99.90;;;;;;4992004;28;20223;-71
2021/04/14 09:27:32;;;;;;;0.20;0.20;;;9.70;99.90;;;;;;4990112;28;20524;-71
2021/04/14 09:30:07;;;;;;;0.57;0.57;;;10.10;99.90;;;;;;4972521;28;20238;-71
2021/04/14 09:32:48;;;;;;;0.20;0.20;;;10.00;99.90;;;;;;4972315;28;20191;-72
2021/04/14 09:35:25;;;;;;;6.40;1.38;;;10.60;99.90;;;;;;4986104;28;20246;-72
2021/04/14 09:37:54;;;;;;;0.20;0.20;;;11.40;99.90;;;;;;4972604;29;20160;-72
2021/04/14 09:40:33;;;;;;;0.38;0.38;;;11.20;99.90;;;;;;4972176;28;20157;-71
2021/04/14 09:42:58;;;;;;;0.10;0.10;;;10.30;99.90;;;;;;4972248;28;20196;-73
2021/04/14 09:45:27;;;;;;;0.68;0.68;;;10.90;99.90;;;;;;4972470;28;20187;-72
2021/04/14 09:47:59;;;;;;;1.30;0.30;;;11.50;99.90;;;;;;4972299;29;20164;-72
2021/04/14 09:50:28;;;;;;;0.10;0.10;;;11.80;99.90;;;;;;4972552;29;20247;-72
2021/04/14 09:52:58;;;;;;;0.10;0.10;;;11.20;99.90;;;;;;4972095;29;20202;-72
2021/04/14 09:55:27;;;;;;;0.10;0.10;;;12.00;99.90;;;;;;4972343;28;20175;-73
2021/04/14 09:57:53;;;;;;;0.13;0.13;;;12.00;99.90;;;;;;4972339;28;20163;-72
2021/04/14 10:00:31;;;;;;;0.15;0.15;;;11.90;99.90;;;;;;4972232;28;20210;-72
2021/04/14 10:03:00;;;;;;;0.10;0.10;;;12.20;99.90;;;;;;4972094;29;20195;-72
2021/04/14 10:05:29;;;;;;;0.10;0.10;;;13.10;99.90;;;;;;4971698;28;20184;-71
2021/04/14 10:07:59;;;;;;;0.17;0.17;;;12.90;99.90;;;;;;4971544;29;20159;-70
2021/04/14 10:10:25;;;;;;;0.22;0.22;;;11.10;99.90;;;;;;4971840;28;20157;-72
2021/04/14 10:12:54;;;;;;;0.10;0.10;;;10.50;99.90;;;;;;4970084;29;20207;-72
2021/04/14 10:15:39;;;;;;;0.10;0.10;;;10.00;99.90;;;;;;4971770;28;20183;-73
2021/04/14 10:18:07;;;;;;;0.30;0.30;;;10.80;99.90;;;;;;4971386;29;20160;-71
2021/04/14 10:20:36;;;;;;;0.52;0.52;;;12.00;99.90;;;;;;4971513;28;20223;-74
2021/04/14 10:23:08;;;;;;;1.08;1.00;;;12.30;99.90;;;;;;4971525;29;20203;-72
2021/04/14 10:25:37;;;;;;;0.30;0.30;;;12.10;99.90;;;;;;4970209;29;20168;-72
2021/04/14 10:28:05;;;;;;;0.20;0.20;;;12.80;99.90;;;;;;4978624;28;20191;-71
2021/04/14 10:30:34;;;;;;;0.20;0.20;;;12.30;99.90;;;;;;4990896;28;20701;-72
2021/04/14 10:33:09;;;;;;;0.10;0.10;;;11.50;99.90;;;;;;4989021;28;20199;-73
2021/04/14 10:35:36;;;;;;;0.28;0.28;;;10.50;99.90;;;;;;4990707;28;20649;-73
2021/04/14 10:38:01;;;;;;;0.17;0.17;;;10.70;99.90;;;;;;4991099;28;20163;-73
2021/04/14 10:40:34;;;;;;;0.10;0.10;;;10.20;99.90;;;;;;4990905;28;20166;-73
2021/04/14 10:43:21;;;;;;;0.10;0.10;;;10.10;99.90;;;;;;4990730;28;20265;-73
2021/04/14 10:46:15;;;;;;;0.30;0.30;;;10.40;99.90;;;;;;4991087;28;20179;-72
2021/04/14 10:48:48;;;;;;;0.13;0.13;;;11.20;99.90;;;;;;4988596;28;20211;-72
2021/04/14 10:51:32;;;;;;;0.10;0.10;;;11.00;99.90;;;;;;4990646;28;20167;-72
2021/04/14 10:54:00;;;;;;;0.20;0.20;;;11.60;99.90;;;;;;4990875;28;20162;-72
2021/04/14 10:56:31;;;;;;;0.55;0.55;;;10.60;99.90;;;;;;4990924;28;20553;-72
2021/04/14 10:59:03;;;;;;;0.20;0.20;;;10.20;99.90;;;;;;4990291;28;20198;-72
2021/04/14 11:01:47;;;;;;;0.63;0.43;;;11.60;99.90;;;;;;4990057;28;20202;-71
2021/04/14 11:04:16;;;;;;;0.10;0.10;;;11.60;99.90;;;;;;4990226;28;20167;-72
2021/04/14 11:06:47;;;;;;;0.50;0.43;;;12.20;99.90;;;;;;4990343;28;20178;-72
2021/04/14 11:09:15;;;;;;;0.10;0.10;;;11.70;99.90;;;;;;4989844;28;20179;-71
2021/04/14 11:11:42;;;;;;;0.10;0.10;;;11.70;99.90;;;;;;4990244;28;20187;-72
2021/04/14 11:14:11;;;;;;;0.10;0.10;;;12.10;99.90;;;;;;4989031;28;20252;-72
2021/04/14 11:16:42;;;;;;;0.10;0.10;;;11.40;99.90;;;;;;4990417;28;20191;-72
2021/04/14 11:19:23;;;;;;;0.10;0.10;;;10.60;99.90;;;;;;4989806;28;20269;-72
2021/04/14 11:22:07;;;;;;;0.10;0.10;;;10.60;99.90;;;;;;4990249;28;20191;-74
2021/04/14 11:25:03;;;;;;;0.20;0.20;;;11.00;99.90;;;;;;4990060;28;20170;-73
2021/04/14 11:27:31;;;;;;;0.10;0.10;;;11.50;99.90;;;;;;4968176;29;20230;-73
2021/04/14 11:30:13;;;;;;;0.25;0.25;;;10.90;99.90;;;;;;4968016;29;20212;-72
2021/04/14 11:32:40;;;;;;;0.10;0.10;;;10.90;99.90;;;;;;4967881;29;20204;-70
2021/04/14 11:35:10;;;;;;;0.32;0.32;;;10.10;99.90;;;;;;4968285;29;20184;-72
2021/04/14 11:37:35;;;;;;;0.20;0.20;;;10.20;99.90;;;;;;4968180;29;20184;-72
2021/04/14 11:40:03;;;;;;;0.28;0.22;;;11.10;99.90;;;;;;4968415;29;20243;-72
2021/04/14 11:42:42;;;;;;;0.10;0.10;;;12.00;99.90;;;;;;4968318;29;20204;-74
2021/04/14 11:45:08;;;;;;;0.30;0.30;;;10.90;99.90;;;;;;4951243;29;20772;-73
2021/04/14 11:47:37;;;;;;;0.10;0.10;;;12.10;99.90;;;;;;4951898;29;20180;-72
2021/04/14 11:50:28;;;;;;;0.10;0.10;;;13.30;99.90;;;;;;4967855;29;20202;-72
2021/04/14 11:52:59;;;;;;;0.10;0.10;;;12.50;99.90;;;;;;4951915;29;20271;-71
2021/04/14 11:55:37;;;;;;;0.30;0.30;;;11.90;99.90;;;;;;4968296;29;20160;-72
2021/04/14 11:58:19;;;;;;;0.20;0.20;;;11.00;99.90;;;;;;4967757;29;20190;-73
2021/04/14 12:00:46;;;;;;;0.10;0.10;;;11.50;99.90;;;;;;4952062;29;20229;-72
2021/04/14 12:03:21;;;;;;;0.20;0.20;;;11.20;99.90;;;;;;4958208;28;20203;-72
2021/04/14 12:05:53;;;;;;;0.20;0.20;;;11.20;99.90;;;;;;4988114;28;20179;-72
2021/04/14 12:08:19;;;;;;;0.20;0.20;;;10.60;99.90;;;;;;4989434;28;20199;-72
2021/04/14 12:10:45;;;;;;;0.30;0.30;;;10.60;99.90;;;;;;4989243;28;20290;-72
2021/04/14 12:13:11;;;;;;;0.20;0.20;;;10.50;99.90;;;;;;4987785;28;20206;-71
2021/04/14 12:15:37;;;;;;;0.20;0.20;;;10.10;99.90;;;;;;4987731;28;20176;-73
2021/04/14 12:18:03;;;;;;;0.20;0.20;;;9.40;99.90;;;;;;4987313;28;20206;-72
2021/04/14 12:20:29;;;;;;;0.20;0.20;;;9.40;99.90;;;;;;4988773;28;20223;-72
2021/04/14 12:22:55;;;;;;;0.10;0.10;;;10.10;99.90;;;;;;4987336;28;20206;-73
2021/04/14 12:25:21;;;;;;;0.20;0.20;;;10.10;99.90;;;;;;4989105;28;20258;-73
2021/04/14 12:27:47;;;;;;;1.98;0.63;;;9.50;99.90;;;;;;4988696;28;20171;-71
2021/04/14 12:30:16;;;;;;;0.30;0.30;;;9.40;99.90;;;;;;4988845;28;20158;-73
2021/04/14 12:32:42;;;;;;;0.20;0.20;;;9.90;99.90;;;;;;4987283;28;20191;-74
2021/04/14 12:35:09;;;;;;;0.10;0.10;;;9.90;99.90;;;;;;4988718;28;20278;-73
2021/04/14 12:37:35;;;;;;;0.10;0.10;;;9.60;99.90;;;;;;4988794;28;20170;-72
2021/04/14 12:40:02;;;;;;;0.20;0.20;;;8.70;99.90;;;;;;4988615;28;20223;-74
2021/04/14 12:42:32;;;;;;;0.10;0.10;;;8.40;99.90;;;;;;4988774;28;20198;-73
2021/04/14 12:44:59;;;;;;;0.10;0.10;;;8.70;99.90;;;;;;4988854;28;20179;-73
2021/04/14 12:47:27;;;;;;;0.57;0.57;;;8.60;99.90;;;;;;4987523;28;20179;-74
2021/04/14 12:49:54;;;;;;;0.20;0.20;;;8.80;99.90;;;;;;4987614;28;20650;-73
2021/04/14 12:52:31;;;;;;;0.10;0.10;;;9.00;99.90;;;;;;4988833;28;20345;-73
2021/04/14 12:54:58;;;;;;;0.20;0.20;;;9.00;99.90;;;;;;4988906;28;20159;-73
2021/04/14 12:57:33;;;;;;;0.50;0.50;;;9.60;99.90;;;;;;4991607;28;20183;-73
2021/04/14 13:00:05;;;;;;;0.10;0.10;;;9.30;99.90;;;;;;4993348;28;20171;-73
2021/04/14 13:02:39;;;;;;;0.40;0.40;;;9.00;99.90;;;;;;4993401;28;20243;-72
2021/04/14 13:05:25;;;;;;;0.10;0.10;;;9.10;99.90;;;;;;4993465;28;20163;-73
2021/04/14 13:08:22;;;;;;;0.10;0.10;;;9.50;99.90;;;;;;4993040;28;20155;-73
2021/04/14 13:10:59;;;;;;;0.20;0.20;;;9.40;99.90;;;;;;4992674;28;20174;-72
2021/04/14 13:13:26;;;;;;;0.20;0.20;;;9.40;99.90;;;;;;4993247;28;20198;-72
2021/04/14 13:15:55;;;;;;;0.10;0.10;;;9.40;99.90;;;;;;4992033;28;20270;-72
2021/04/14 13:18:22;;;;;;;0.10;0.10;;;9.50;99.90;;;;;;4993429;28;20167;-72
2021/04/14 13:20:53;;;;;;;0.10;0.10;;;9.50;99.90;;;;;;4992589;28;20219;-73